createdAt,value
2022-09-23T00:00:00.298Z,102083.66
2022-09-23T00:05:01.802Z,102076.41
2022-09-23T00:10:03.389Z,102074.63
2022-09-23T00:15:05.332Z,102067.22
2022-09-23T00:20:09.352Z,102066.50
2022-09-23T00:25:11.980Z,102058.56
2022-09-23T00:30:13.466Z,102053.38
2022-09-23T00:35:15.320Z,102057.44
2022-09-23T00:40:16.942Z,102068.03
2022-09-23T00:45:19.504Z,102071.91
2022-09-23T00:50:37.908Z,102072.59
2022-09-23T00:55:45.948Z,102085.31
2022-09-23T01:00:47.499Z,102077.53
2022-09-23T01:05:49.312Z,102066.25
2022-09-23T01:10:58.959Z,102071.22
2022-09-23T01:16:09.851Z,102056.44
2022-09-23T01:21:18.026Z,102053.50
2022-09-23T01:26:59.110Z,102042.19
2022-09-23T01:32:26.256Z,102024.44
2022-09-23T01:37:46.906Z,101988.00
2022-09-23T01:42:58.208Z,101950.16
2022-09-23T01:48:12.824Z,101914.53
2022-09-23T01:53:23.945Z,101895.00
2022-09-23T01:58:33.152Z,101847.34
2022-09-23T02:03:42.590Z,101839.34
2022-09-23T02:08:51.500Z,101827.00
2022-09-23T02:14:11.355Z,101833.06
2022-09-23T02:19:15.383Z,101831.78
2022-09-23T02:24:25.986Z,101829.88
2022-09-23T02:29:49.389Z,101827.78
2022-09-23T02:35:15.687Z,101845.53
2022-09-23T02:40:23.590Z,101861.88
2022-09-23T02:45:25.275Z,101861.16
2022-09-23T02:50:26.829Z,101865.44
2022-09-23T02:55:32.432Z,101878.69
2022-09-23T03:00:50.184Z,101874.69
2022-09-23T03:05:59.014Z,101876.34
2022-09-23T03:11:06.266Z,101862.03
2022-09-23T03:16:32.045Z,101856.59
2022-09-23T03:22:08.539Z,101844.56
2022-09-23T03:27:16.226Z,101835.13
2022-09-23T03:32:21.878Z,101833.56
2022-09-23T03:37:31.303Z,101823.06
2022-09-23T03:42:34.351Z,101818.97
2022-09-23T03:47:36.392Z,101802.13
2022-09-23T03:52:39.756Z,101799.56
2022-09-23T03:57:41.242Z,101795.09
2022-09-23T04:02:43.714Z,101788.28
2022-09-23T04:07:45.688Z,101787.41
2022-09-23T04:12:47.199Z,101781.63
2022-09-23T04:17:48.706Z,101774.25
2022-09-23T04:22:50.250Z,101777.47
2022-09-23T04:27:51.729Z,101774.91
2022-09-23T04:32:53.416Z,101777.47
2022-09-23T04:37:54.945Z,101785.63
2022-09-23T04:42:56.510Z,101791.88
2022-09-23T04:47:58.483Z,101788.19
2022-09-23T04:53:00.109Z,101793.63
2022-09-23T04:58:01.615Z,101792.84
2022-09-23T05:03:03.418Z,101789.41
2022-09-23T05:08:04.883Z,101800.53
2022-09-23T05:13:06.343Z,101793.97
2022-09-23T05:18:07.910Z,101783.38
2022-09-23T05:23:09.383Z,101796.38
2022-09-23T05:28:10.883Z,101785.16
2022-09-23T05:33:12.717Z,101780.03
2022-09-23T05:38:16.779Z,101792.13
2022-09-23T05:43:18.243Z,101781.53
2022-09-23T05:48:19.792Z,101776.47
2022-09-23T05:53:21.314Z,101775.63
2022-09-23T05:58:24.185Z,101764.66
2022-09-23T06:03:25.994Z,101756.81
2022-09-23T06:08:27.884Z,101751.69
2022-09-23T06:13:29.355Z,101752.03
2022-09-23T06:18:30.862Z,101743.00
2022-09-23T06:23:33.263Z,101726.22
2022-09-23T06:28:37.435Z,101721.88
2022-09-23T06:33:39.259Z,101736.28
2022-09-23T06:38:44.140Z,101742.44
2022-09-23T06:43:45.655Z,101744.56
2022-09-23T06:48:49.114Z,101750.03
2022-09-23T06:53:50.681Z,101759.78
2022-09-23T06:58:52.818Z,101758.25
2022-09-23T07:03:54.367Z,101755.03
2022-09-23T07:08:55.842Z,101731.31
2022-09-23T07:13:57.668Z,101731.94
2022-09-23T07:18:59.345Z,101735.56
2022-09-23T07:24:01.199Z,101731.06
2022-09-23T07:29:05.545Z,101732.25
2022-09-23T07:34:09.896Z,101727.28
2022-09-23T07:39:12.640Z,101712.88
2022-09-23T07:44:14.139Z,101707.13
2022-09-23T07:49:16.029Z,101699.47
2022-09-23T07:54:18.291Z,101700.38
2022-09-23T07:59:19.846Z,101693.59
2022-09-23T08:04:22.659Z,101681.13
2022-09-23T08:09:31.960Z,101672.69
2022-09-23T08:14:33.513Z,101675.47
2022-09-23T08:19:50.123Z,101677.81
2022-09-23T08:24:52.410Z,101659.66
2022-09-23T08:29:55.309Z,101662.88
2022-09-23T08:34:56.928Z,101671.56
2022-09-23T08:39:59.634Z,101665.00
2022-09-23T08:45:05.371Z,101658.53
2022-09-23T08:50:17.986Z,101657.28
2022-09-23T08:55:24.011Z,101648.91
2022-09-23T09:00:40.545Z,101639.09
2022-09-23T09:05:42.067Z,101643.25
2022-09-23T09:10:46.702Z,101636.22
2022-09-23T09:16:16.019Z,101628.06
2022-09-23T09:21:17.639Z,101630.97
2022-09-23T09:26:28.098Z,101616.97
2022-09-23T09:31:33.532Z,101615.44
2022-09-23T09:36:45.691Z,101616.16
2022-09-23T09:41:52.935Z,101607.94
2022-09-23T09:47:20.760Z,101608.84
2022-09-23T09:52:29.541Z,101601.06
2022-09-23T09:57:38.138Z,101594.78
2022-09-23T10:02:39.913Z,101593.09
2022-09-23T10:07:41.450Z,101585.50
2022-09-23T10:12:46.777Z,101576.44
2022-09-23T10:17:51.244Z,101574.22
2022-09-23T10:22:53.083Z,101572.38
2022-09-23T10:27:54.705Z,101572.78
2022-09-23T10:32:57.022Z,101570.44
2022-09-23T10:38:01.856Z,101570.88
2022-09-23T10:43:40.607Z,101575.47
2022-09-23T10:49:01.000Z,101570.63
2022-09-23T10:54:14.257Z,101577.56
2022-09-23T10:59:52.106Z,101556.66
2022-09-23T11:05:05.933Z,101549.88
2022-09-23T11:10:49.884Z,101550.94
2022-09-23T11:16:06.738Z,101555.91
2022-09-23T11:21:31.811Z,101550.84
2022-09-23T11:26:43.017Z,101549.91
2022-09-23T11:32:04.644Z,101543.44
2022-09-23T11:37:14.096Z,101530.75
2022-09-23T11:42:28.923Z,101539.16
2022-09-23T11:47:43.870Z,101533.63
2022-09-23T11:52:51.925Z,101520.13
2022-09-23T11:57:57.520Z,101522.38
2022-09-23T12:03:09.783Z,101518.47
2022-09-23T12:08:29.088Z,101518.59
2022-09-23T12:14:01.381Z,101516.84
2022-09-23T12:19:21.940Z,101510.81
2022-09-23T12:24:56.718Z,101511.00
2022-09-23T12:30:21.649Z,101496.66
2022-09-23T12:35:32.121Z,101497.94
2022-09-23T12:40:40.170Z,101491.84
2022-09-23T12:45:42.032Z,101492.25
2022-09-23T12:51:16.373Z,101489.00
2022-09-23T12:56:24.550Z,101476.53
2022-09-23T13:01:27.102Z,101480.91
2022-09-23T13:06:40.945Z,101476.75
2022-09-23T13:11:45.391Z,101468.09
2022-09-23T13:16:47.987Z,101462.03
2022-09-23T13:21:50.684Z,101452.66
2022-09-23T13:27:15.234Z,101443.09
2022-09-23T13:32:19.007Z,101443.81
2022-09-23T13:37:23.824Z,101447.16
2022-09-23T13:42:30.368Z,101448.72
2022-09-23T13:47:35.988Z,101438.41
2022-09-23T13:52:37.532Z,101441.81
2022-09-23T13:57:38.999Z,101424.69
2022-09-23T14:02:44.304Z,101440.09
2022-09-23T14:07:49.833Z,101426.22
2022-09-23T14:12:52.872Z,101422.84
2022-09-23T14:18:02.254Z,101420.19
2022-09-23T14:23:10.924Z,101414.88
2022-09-23T14:28:18.185Z,101414.84
2022-09-23T14:33:28.710Z,101403.56
2022-09-23T14:38:49.453Z,101399.16
2022-09-23T14:43:55.007Z,101404.28
2022-09-23T14:49:17.309Z,101396.56
2022-09-23T14:54:41.376Z,101394.78
2022-09-23T14:59:51.447Z,101389.56
2022-09-23T15:05:35.742Z,101389.50
2022-09-23T15:10:39.808Z,101379.16
2022-09-23T15:15:42.676Z,101381.63
2022-09-23T15:20:57.484Z,101369.44
2022-09-23T15:26:06.021Z,101371.19
2022-09-23T15:31:11.561Z,101366.84
2022-09-23T15:36:27.749Z,101373.69
2022-09-23T15:41:29.991Z,101376.31
2022-09-23T15:46:33.639Z,101378.91
2022-09-23T15:51:37.328Z,101383.13
2022-09-23T15:56:38.863Z,101376.25
2022-09-23T16:01:42.875Z,101373.59
2022-09-23T16:06:45.423Z,101379.50
2022-09-23T16:11:49.273Z,101381.25
2022-09-23T16:16:50.762Z,101375.06
2022-09-23T16:21:52.333Z,101378.53
2022-09-23T16:26:59.746Z,101368.06
2022-09-23T16:32:01.978Z,101366.41
2022-09-23T16:37:04.771Z,101361.97
2022-09-23T16:42:06.548Z,101367.97
2022-09-23T16:47:08.690Z,101362.72
2022-09-23T16:52:11.593Z,101361.44
2022-09-23T16:57:17.365Z,101366.63
2022-09-23T17:02:37.652Z,101370.66
2022-09-23T17:07:39.242Z,101381.94
2022-09-23T17:12:40.904Z,101385.06
2022-09-23T17:17:42.952Z,101374.78
2022-09-23T17:22:44.453Z,101390.19
2022-09-23T17:27:48.314Z,101397.88
2022-09-23T17:32:52.663Z,101397.47
2022-09-23T17:37:54.392Z,101400.91
2022-09-23T17:42:56.351Z,101396.56
2022-09-23T17:47:57.855Z,101392.28
2022-09-23T17:53:00.395Z,101393.84
2022-09-23T17:58:01.931Z,101402.25
2022-09-23T18:03:04.000Z,101409.88
2022-09-23T18:08:06.193Z,101430.16
2022-09-23T18:13:07.882Z,101434.25
2022-09-23T18:18:09.388Z,101431.44
2022-09-23T18:23:10.913Z,101432.38
2022-09-23T18:28:12.400Z,101435.69
2022-09-23T18:33:15.256Z,101443.25
2022-09-23T18:38:16.762Z,101442.59
2022-09-23T18:43:19.908Z,101458.94
2022-09-23T18:48:40.209Z,101453.09
2022-09-23T18:53:42.009Z,101465.78
2022-09-23T18:58:48.195Z,101481.44
2022-09-23T19:03:55.297Z,101503.88
2022-09-23T19:08:59.064Z,101519.00
2022-09-23T19:14:01.475Z,101534.38
2022-09-23T19:19:04.525Z,101540.34
2022-09-23T19:24:07.500Z,101548.25
2022-09-23T19:29:14.170Z,101571.78
2022-09-23T19:34:19.313Z,101583.16
2022-09-23T19:39:27.032Z,101586.41
2022-09-23T19:44:28.635Z,101578.09
2022-09-23T19:49:31.083Z,101583.16
2022-09-23T19:54:32.872Z,101594.09
2022-09-23T19:59:34.572Z,101598.72
2022-09-23T20:04:36.139Z,101600.56
2022-09-23T20:09:37.713Z,101598.84
2022-09-23T20:14:39.228Z,101594.09
2022-09-23T20:19:40.814Z,101594.16
2022-09-23T20:24:42.318Z,101597.63
2022-09-23T20:29:43.991Z,101602.94
2022-09-23T20:34:49.707Z,101694.34
2022-09-23T20:39:52.671Z,101692.41
2022-09-23T20:44:54.936Z,101684.50
2022-09-23T20:49:56.498Z,101673.19
2022-09-23T20:54:58.637Z,101677.41
2022-09-23T21:00:00.281Z,101692.59
2022-09-23T21:05:01.818Z,101686.63
2022-09-23T21:10:06.840Z,101685.41
2022-09-23T21:15:08.694Z,101691.41
2022-09-23T21:20:12.338Z,101688.66
2022-09-23T21:25:27.587Z,101693.09
2022-09-23T21:30:30.038Z,101687.16
2022-09-23T21:35:31.577Z,101691.38
2022-09-23T21:40:51.406Z,101693.75
2022-09-23T21:46:05.267Z,101694.47
2022-09-23T21:51:10.046Z,101695.28
2022-09-23T21:56:19.655Z,101699.41
2022-09-23T22:01:23.697Z,101706.50
2022-09-23T22:06:27.588Z,101712.34
2022-09-23T22:11:50.202Z,101713.50
2022-09-23T22:16:57.497Z,101709.13
2022-09-23T22:21:59.293Z,101700.09
2022-09-23T22:27:00.849Z,101697.31
2022-09-23T22:32:22.486Z,101691.47
2022-09-23T22:37:34.381Z,101694.69
2022-09-23T22:42:36.575Z,101704.13
2022-09-23T22:47:39.774Z,101691.97
2022-09-23T22:52:41.329Z,101695.41
2022-09-23T22:57:42.918Z,101706.63
2022-09-23T23:02:45.471Z,101700.63
2022-09-23T23:07:47.054Z,101703.22
2022-09-23T23:12:49.512Z,101705.91
2022-09-23T23:17:53.702Z,101717.25
2022-09-23T23:22:55.244Z,101714.59
2022-09-23T23:27:57.918Z,101718.00
2022-09-23T23:32:59.441Z,101738.56
2022-09-23T23:38:00.959Z,101740.13
2022-09-23T23:43:03.626Z,101736.78
2022-09-23T23:48:05.168Z,101731.59
2022-09-23T23:53:06.719Z,101734.16
2022-09-23T23:58:08.254Z,101737.53
